Time;durP1;ratioP1;P1;durP2;ratioP2;P2;SDS_P1;SDS_P2;PMS_P1;PMS_P2;Temp;Humidity;BMP_temperature;BMP_pressure;BME280_temperature;BME280_humidity;BME280_pressure;Samples;Min_cycle;Max_cycle;Signal;HPM_P1;HPM_P2
2022/05/17 00:00:49;;;;;;;11.65;3.20;;;13.00;99.90;;;;;;4977977;28;20050;-83
2022/05/17 00:03:17;;;;;;;9.52;2.65;;;13.00;99.90;;;;;;4972445;28;20413;-84
2022/05/17 00:05:46;;;;;;;11.93;3.33;;;12.90;99.90;;;;;;4969996;28;20058;-84
2022/05/17 00:08:15;;;;;;;9.68;2.55;;;12.90;99.90;;;;;;4969727;28;20498;-83
2022/05/17 00:10:44;;;;;;;13.55;3.40;;;12.90;99.90;;;;;;4966629;28;20513;-83
2022/05/17 00:13:12;;;;;;;11.95;3.25;;;12.90;99.90;;;;;;4970151;28;20478;-88
2022/05/17 00:15:43;;;;;;;8.82;2.50;;;12.80;99.90;;;;;;4971786;28;20050;-88
2022/05/17 00:18:12;;;;;;;15.77;2.97;;;12.80;99.90;;;;;;4971471;28;20049;-83
2022/05/17 00:20:41;;;;;;;15.23;3.13;;;12.80;99.90;;;;;;4969957;28;20572;-84
2022/05/17 00:23:10;;;;;;;10.63;2.60;;;12.80;99.90;;;;;;4968740;28;20057;-83
2022/05/17 00:25:39;;;;;;;7.93;2.55;;;12.70;99.90;;;;;;4968720;28;20410;-84
2022/05/17 00:28:07;;;;;;;8.27;2.75;;;12.60;99.90;;;;;;4969233;28;20406;-83
2022/05/17 00:30:34;;;;;;;6.25;2.70;;;12.60;99.90;;;;;;4970590;28;20050;-84
2022/05/17 00:33:02;;;;;;;6.72;2.45;;;12.50;99.90;;;;;;4968929;28;20541;-82
2022/05/17 00:35:31;;;;;;;13.45;2.65;;;12.50;99.90;;;;;;4972630;28;20046;-84
2022/05/17 00:37:58;;;;;;;11.32;3.38;;;12.40;99.90;;;;;;4972004;28;20058;-83
2022/05/17 00:40:26;;;;;;;10.05;2.72;;;12.30;99.90;;;;;;4973854;28;20058;-83
2022/05/17 00:42:54;;;;;;;12.32;3.67;;;12.30;99.90;;;;;;4973676;28;20051;-82
2022/05/17 00:45:22;;;;;;;17.85;3.20;;;12.20;99.90;;;;;;4973967;28;20055;-82
2022/05/17 00:47:58;;;;;;;10.52;4.93;;;12.10;99.90;;;;;;4973700;28;20051;-84
2022/05/17 00:50:33;;;;;;;8.98;2.70;;;12.10;99.90;;;;;;4961824;28;20276;-83
2022/05/17 00:53:01;;;;;;;7.45;2.83;;;12.00;99.90;;;;;;4973546;28;20057;-84
2022/05/17 00:55:46;;;;;;;7.85;2.50;;;11.90;99.90;;;;;;4963583;28;20046;-84
2022/05/17 00:58:38;;;;;;;11.05;2.85;;;11.90;99.90;;;;;;4973266;28;20043;-84
2022/05/17 01:01:18;;;;;;;12.23;3.47;;;11.80;99.90;;;;;;4971203;28;20047;-83
2022/05/17 01:04:06;;;;;;;7.85;3.17;;;11.80;99.90;;;;;;4967737;28;20050;-83
2022/05/17 01:07:05;;;;;;;12.18;3.10;;;11.70;99.90;;;;;;4970222;28;20042;-84
2022/05/17 01:09:33;;;;;;;5.78;2.60;;;11.70;99.90;;;;;;4964843;28;20074;-83
2022/05/17 01:12:01;;;;;;;13.05;2.85;;;11.70;99.90;;;;;;4970125;28;20053;-82
2022/05/17 01:17:15;;;;;;;10.73;2.92;;;11.60;99.90;;;;;;4970571;28;20039;-82
2022/05/17 01:19:43;;;;;;;13.07;3.58;;;11.60;99.90;;;;;;4973162;28;20050;-83
2022/05/17 01:22:11;;;;;;;13.75;3.90;;;11.60;99.90;;;;;;4966841;28;20523;-82
2022/05/17 01:24:39;;;;;;;15.02;4.07;;;11.60;99.90;;;;;;4968587;28;20058;-82
2022/05/17 01:27:12;;;;;;;13.38;3.28;;;11.60;99.90;;;;;;4980739;28;20050;-82
2022/05/17 01:29:43;;;;;;;16.63;4.10;;;11.60;99.90;;;;;;4970431;28;20536;-84
2022/05/17 01:32:12;;;;;;;10.18;3.10;;;11.60;99.90;;;;;;4961470;28;20059;-83
2022/05/17 01:34:41;;;;;;;18.33;3.75;;;11.60;99.90;;;;;;4977269;28;20055;-83
2022/05/17 01:37:11;;;;;;;13.07;3.63;;;11.60;99.90;;;;;;4964405;28;20043;-83
2022/05/17 01:39:39;;;;;;;8.63;3.22;;;11.60;99.90;;;;;;4962280;28;20066;-83
2022/05/17 01:42:08;;;;;;;7.78;3.33;;;11.60;99.90;;;;;;4972436;28;20245;-83
2022/05/17 01:44:36;;;;;;;8.45;3.15;;;11.60;99.90;;;;;;4973775;28;20526;-84
2022/05/17 01:47:04;;;;;;;12.88;2.95;;;11.60;99.90;;;;;;4974909;22;20530;-60
2022/05/17 01:49:32;;;;;;;11.88;2.88;;;11.50;99.90;;;;;;4954056;28;20522;-60
2022/05/17 01:51:59;;;;;;;15.82;3.42;;;11.50;99.90;;;;;;4954975;28;20074;-60
2022/05/17 01:54:27;;;;;;;14.40;4.20;;;11.50;99.90;;;;;;4952705;29;20513;-60
2022/05/17 01:56:55;;;;;;;18.90;4.30;;;11.40;99.90;;;;;;4953937;29;20058;-59
2022/05/17 01:59:22;;;;;;;23.70;4.05;;;11.50;99.90;;;;;;4954148;28;20054;-59
2022/05/17 02:01:50;;;;;;;17.50;5.25;;;11.50;99.90;;;;;;4955392;28;20058;-58
2022/05/17 02:04:18;;;;;;;17.70;4.55;;;11.50;99.90;;;;;;4952484;29;20035;-58
2022/05/17 02:06:45;;;;;;;23.65;4.68;;;11.60;99.90;;;;;;4936867;29;20044;-59
2022/05/17 02:09:13;;;;;;;18.85;5.15;;;11.60;99.90;;;;;;4952450;28;20051;-59
2022/05/17 02:11:42;;;;;;;27.02;4.95;;;11.60;99.90;;;;;;4955312;28;20402;-59
2022/05/17 02:14:10;;;;;;;22.30;4.25;;;11.70;99.90;;;;;;4952840;28;20058;-58
2022/05/17 02:16:38;;;;;;;16.48;4.97;;;11.70;99.90;;;;;;4954673;28;20039;-60
2022/05/17 02:22:15;;;;;;;16.42;5.18;;;11.70;99.90;;;;;;5258369;23;20052;-60
2022/05/17 02:24:47;;;;;;;19.77;5.60;;;11.70;99.90;;;;;;4917230;29;20052;-61
2022/05/17 02:27:14;;;;;;;18.13;4.30;;;11.70;99.90;;;;;;4917275;29;20492;-61
2022/05/17 02:29:42;;;;;;;11.88;4.53;;;11.70;99.90;;;;;;4915917;29;20048;-60
2022/05/17 02:32:11;;;;;;;18.63;4.45;;;11.70;99.90;;;;;;4916857;29;20055;-61
2022/05/17 02:34:39;;;;;;;28.97;5.33;;;11.70;99.90;;;;;;4916969;29;20488;-62
2022/05/17 02:37:07;;;;;;;15.40;4.28;;;11.60;99.90;;;;;;4915856;29;20048;-62
2022/05/17 02:39:35;;;;;;;21.30;5.22;;;11.60;99.90;;;;;;4916953;29;20059;-60
2022/05/17 02:42:03;;;;;;;18.48;5.03;;;11.60;99.90;;;;;;4916896;29;20488;-60
2022/05/17 02:44:31;;;;;;;20.23;4.53;;;11.60;99.90;;;;;;4916789;29;20056;-59
2022/05/17 02:46:58;;;;;;;21.42;5.57;;;11.70;99.90;;;;;;4916982;29;20044;-59
2022/05/17 02:49:26;;;;;;;16.75;5.40;;;11.70;99.90;;;;;;4915654;29;20631;-61
2022/05/17 02:51:54;;;;;;;21.30;4.78;;;11.70;99.90;;;;;;4916852;29;20040;-59
2022/05/17 02:54:22;;;;;;;20.70;4.88;;;11.70;99.90;;;;;;4916595;29;20052;-61
2022/05/17 02:56:50;;;;;;;18.45;5.13;;;11.70;99.90;;;;;;4916291;29;20530;-66
2022/05/17 02:59:18;;;;;;;16.70;5.07;;;11.80;99.90;;;;;;4916214;29;20062;-65
2022/05/17 03:01:47;;;;;;;21.63;5.90;;;11.80;99.90;;;;;;4915350;29;20423;-62
2022/05/17 03:04:15;;;;;;;24.88;5.10;;;11.80;99.90;;;;;;4916502;29;20424;-64
2022/05/17 03:06:44;;;;;;;14.25;4.97;;;11.80;99.90;;;;;;4916409;29;20110;-65
2022/05/17 03:09:13;;;;;;;25.55;5.10;;;11.80;99.90;;;;;;4916518;29;20048;-65
2022/05/17 03:11:43;;;;;;;20.35;5.10;;;11.80;99.90;;;;;;4915067;29;20052;-65
2022/05/17 03:14:18;;;;;;;20.43;5.73;;;11.70;99.90;;;;;;4916604;29;20454;-66
2022/05/17 03:16:46;;;;;;;22.65;5.68;;;11.70;99.90;;;;;;4916131;29;20048;-66
2022/05/17 03:19:14;;;;;;;22.55;4.55;;;11.70;99.90;;;;;;4916248;29;20048;-67
2022/05/17 03:21:42;;;;;;;27.05;5.53;;;11.70;99.90;;;;;;4915872;29;20052;-66
2022/05/17 03:24:09;;;;;;;17.55;6.15;;;11.60;99.90;;;;;;4916201;29;20051;-67
2022/05/17 03:26:58;;;;;;;17.83;4.45;;;11.60;99.90;;;;;;4916250;29;20040;-67
2022/05/17 03:29:27;;;;;;;26.15;4.95;;;11.60;99.90;;;;;;4916090;29;20048;-65
2022/05/17 03:31:54;;;;;;;20.35;5.85;;;11.60;99.90;;;;;;4915928;29;20052;-66
2022/05/17 03:34:23;;;;;;;12.88;4.30;;;11.60;99.90;;;;;;4915974;29;20619;-61
2022/05/17 03:36:50;;;;;;;23.48;4.85;;;11.60;99.90;;;;;;4915990;29;20059;-62
2022/05/17 03:39:18;;;;;;;21.95;4.65;;;11.50;99.90;;;;;;4915828;29;20051;-61
2022/05/17 03:41:45;;;;;;;28.23;5.57;;;11.50;99.90;;;;;;4915930;29;20047;-61
2022/05/17 03:44:13;;;;;;;20.98;4.30;;;11.40;99.90;;;;;;4915879;29;20051;-64
2022/05/17 03:46:41;;;;;;;23.70;4.68;;;11.40;99.90;;;;;;4899286;29;20642;-62
2022/05/17 03:49:10;;;;;;;21.65;4.93;;;11.40;99.90;;;;;;4915783;29;20064;-62
2022/05/17 03:51:39;;;;;;;22.23;4.45;;;11.30;99.90;;;;;;4915697;29;20060;-63
2022/05/17 03:54:07;;;;;;;21.30;3.90;;;11.40;99.90;;;;;;4914561;29;20040;-62
2022/05/17 03:56:35;;;;;;;30.13;5.05;;;11.30;99.90;;;;;;4915651;29;20051;-64
2022/05/17 03:59:02;;;;;;;21.60;5.70;;;11.30;99.90;;;;;;4915481;29;20492;-66
2022/05/17 04:01:30;;;;;;;17.20;5.95;;;11.30;99.90;;;;;;4915579;29;20396;-65
2022/05/17 04:03:58;;;;;;;25.95;5.25;;;11.40;99.90;;;;;;4915624;29;20511;-64
2022/05/17 04:06:25;;;;;;;31.55;5.13;;;11.40;99.90;;;;;;4915459;29;20056;-62
2022/05/17 04:08:53;;;;;;;21.08;4.93;;;11.50;99.90;;;;;;4915532;29;20055;-65
2022/05/17 04:11:20;;;;;;;26.48;5.40;;;11.60;99.90;;;;;;4915568;29;20056;-63
2022/05/17 04:13:48;;;;;;;31.45;5.85;;;11.70;99.90;;;;;;4898145;29;20054;-65
2022/05/17 04:16:16;;;;;;;24.02;5.22;;;11.70;99.90;;;;;;4914326;29;20051;-67
2022/05/17 04:18:43;;;;;;;28.50;7.47;;;11.80;99.90;;;;;;4915637;29;20699;-67
2022/05/17 04:21:12;;;;;;;18.10;6.28;;;11.90;99.90;;;;;;4915059;29;20060;-65
2022/05/17 04:23:41;;;;;;;28.90;6.03;;;11.90;99.90;;;;;;4914149;29;20055;-61
2022/05/17 04:26:09;;;;;;;21.23;5.47;;;11.80;99.90;;;;;;4914125;29;20052;-61
2022/05/17 04:28:37;;;;;;;20.95;4.35;;;11.80;99.90;;;;;;4915301;29;20044;-61
2022/05/17 04:31:05;;;;;;;25.67;5.22;;;11.80;99.90;;;;;;4915316;29;20044;-61
2022/05/17 04:33:33;;;;;;;27.33;5.88;;;11.80;99.90;;;;;;4915020;29;20145;-61
2022/05/17 04:36:00;;;;;;;27.13;5.32;;;11.70;99.90;;;;;;4915268;29;20063;-61
2022/05/17 04:38:28;;;;;;;25.88;4.80;;;11.70;99.90;;;;;;4915400;29;20052;-61
2022/05/17 04:40:56;;;;;;;30.00;4.97;;;11.70;99.90;;;;;;4915133;29;20044;-61
2022/05/17 04:43:24;;;;;;;24.52;5.00;;;11.70;99.90;;;;;;4914938;29;20067;-61
2022/05/17 04:45:54;;;;;;;21.45;4.70;;;11.60;99.90;;;;;;4913884;29;20052;-61
2022/05/17 04:48:25;;;;;;;32.97;8.23;;;11.60;99.90;;;;;;4899559;29;20051;-61
2022/05/17 04:50:53;;;;;;;30.60;5.35;;;11.60;99.90;;;;;;4893766;29;20053;-65
2022/05/17 04:53:28;;;;;;;33.75;6.45;;;11.60;99.90;;;;;;4892843;29;20056;-62
2022/05/17 04:55:55;;;;;;;24.65;5.22;;;11.60;99.90;;;;;;4893014;29;20079;-64
2022/05/17 04:58:23;;;;;;;32.92;4.45;;;11.50;99.90;;;;;;4903800;29;20044;-61
2022/05/17 05:00:52;;;;;;;24.17;4.65;;;11.50;99.90;;;;;;4911795;29;20052;-61
2022/05/17 05:03:19;;;;;;;30.90;5.15;;;11.50;99.90;;;;;;4896088;29;20065;-62
2022/05/17 05:05:48;;;;;;;21.63;4.60;;;11.50;99.90;;;;;;4891242;29;20056;-61
2022/05/17 05:08:16;;;;;;;29.60;4.60;;;11.50;99.90;;;;;;4900232;29;20044;-61
2022/05/17 05:10:45;;;;;;;27.35;4.97;;;11.50;99.90;;;;;;4908623;29;20051;-61
2022/05/17 05:13:20;;;;;;;15.77;4.50;;;11.50;99.90;;;;;;4898958;29;20055;-66
2022/05/17 05:15:48;;;;;;;24.45;4.13;;;11.50;99.90;;;;;;4910196;29;20056;-66
2022/05/17 05:18:17;;;;;;;36.10;5.82;;;11.50;99.90;;;;;;4908679;29;20056;-63
2022/05/17 05:20:44;;;;;;;27.60;5.28;;;11.60;99.90;;;;;;4910411;29;20055;-65
2022/05/17 05:23:12;;;;;;;27.85;4.60;;;11.50;99.90;;;;;;4914764;29;20052;-64
2022/05/17 05:25:40;;;;;;;24.45;4.68;;;11.50;99.90;;;;;;4903999;29;20057;-63
2022/05/17 05:28:09;;;;;;;23.92;4.45;;;11.50;99.90;;;;;;4905053;29;20052;-65
2022/05/17 05:30:38;;;;;;;25.17;4.53;;;11.60;99.90;;;;;;4915355;29;20500;-65
2022/05/17 05:33:05;;;;;;;23.52;4.72;;;11.60;99.90;;;;;;4916518;29;20411;-66
2022/05/17 05:35:33;;;;;;;31.58;5.90;;;11.60;99.90;;;;;;4915368;29;20047;-65
2022/05/17 05:38:03;;;;;;;21.23;4.00;;;11.60;99.90;;;;;;4915398;29;20053;-63
2022/05/17 05:40:31;;;;;;;13.85;4.05;;;11.70;99.90;;;;;;4910984;29;20056;-65
2022/05/17 05:42:59;;;;;;;20.33;4.90;;;11.70;99.90;;;;;;4899825;29;20403;-63
2022/05/17 05:45:27;;;;;;;32.42;4.43;;;11.70;99.90;;;;;;4912945;29;20044;-65
2022/05/17 05:47:54;;;;;;;20.95;4.53;;;11.80;99.90;;;;;;4916222;29;20696;-62
2022/05/17 05:50:23;;;;;;;33.42;4.88;;;11.80;99.90;;;;;;4915974;29;20048;-64
2022/05/17 05:52:50;;;;;;;24.08;4.53;;;11.90;99.90;;;;;;4912076;29;20048;-62
2022/05/17 05:55:21;;;;;;;24.70;6.05;;;11.90;99.90;;;;;;4911729;29;20044;-65
2022/05/17 05:57:50;;;;;;;24.05;4.80;;;11.90;99.90;;;;;;4916041;29;20051;-65
2022/05/17 06:00:20;;;;;;;24.50;5.78;;;12.00;99.90;;;;;;4916171;29;20059;-64
2022/05/17 06:02:48;;;;;;;28.98;5.35;;;12.00;99.90;;;;;;4915927;29;20048;-64
2022/05/17 06:05:16;;;;;;;18.30;3.97;;;12.10;99.90;;;;;;4909909;29;20044;-62
2022/05/17 06:07:44;;;;;;;24.30;4.90;;;12.20;99.90;;;;;;4911373;29;20044;-61
2022/05/17 06:10:13;;;;;;;22.65;4.65;;;12.20;99.90;;;;;;4912207;29;20048;-60
2022/05/17 06:12:41;;;;;;;33.05;4.70;;;12.40;99.90;;;;;;4911332;29;20067;-59
2022/05/17 06:15:09;;;;;;;12.80;3.55;;;12.40;99.90;;;;;;4913477;29;20055;-58
2022/05/17 06:17:39;;;;;;;28.17;5.22;;;12.40;99.90;;;;;;4913563;29;20048;-59
2022/05/17 06:20:09;;;;;;;19.05;4.05;;;12.50;99.90;;;;;;4914213;29;20048;-64
2022/05/17 06:22:38;;;;;;;26.58;4.43;;;12.50;99.90;;;;;;4913187;29;20052;-59
2022/05/17 06:25:07;;;;;;;26.03;4.60;;;12.60;99.90;;;;;;4911626;29;20527;-62
2022/05/17 06:27:34;;;;;;;19.13;4.63;;;12.60;99.90;;;;;;4912265;29;20052;-59
2022/05/17 06:30:02;;;;;;;16.50;4.18;;;12.60;99.90;;;;;;4914566;29;20048;-58
2022/05/17 06:32:30;;;;;;;21.42;4.15;;;12.70;99.90;;;;;;4912589;29;20047;-59
2022/05/17 06:34:58;;;;;;;25.92;4.93;;;12.70;99.90;;;;;;4914431;29;20051;-59
2022/05/17 06:37:25;;;;;;;23.42;4.97;;;12.80;99.90;;;;;;4909133;29;20048;-60
2022/05/17 06:39:53;;;;;;;27.65;5.53;;;12.80;99.90;;;;;;4899226;29;20051;-59
2022/05/17 06:42:21;;;;;;;20.08;3.80;;;12.90;99.90;;;;;;4912657;29;20060;-59
2022/05/17 06:44:50;;;;;;;25.83;4.18;;;13.00;99.90;;;;;;4912100;29;20381;-59
2022/05/17 06:47:18;;;;;;;33.25;5.53;;;13.00;99.90;;;;;;4912201;29;20504;-61
2022/05/17 06:49:46;;;;;;;20.15;4.32;;;13.10;99.90;;;;;;4912205;29;20075;-62
2022/05/17 06:52:13;;;;;;;27.45;4.82;;;13.10;99.90;;;;;;4912604;29;20048;-60
2022/05/17 06:54:43;;;;;;;18.73;4.18;;;13.20;99.90;;;;;;4910472;29;20044;-61
2022/05/17 06:57:14;;;;;;;24.45;4.63;;;13.20;99.90;;;;;;4911546;29;20055;-61
2022/05/17 06:59:44;;;;;;;21.40;3.90;;;13.30;99.90;;;;;;4911396;29;20138;-62
2022/05/17 07:02:12;;;;;;;25.13;4.47;;;13.40;99.90;;;;;;4902238;29;20056;-62
2022/05/17 07:04:40;;;;;;;18.95;3.47;;;13.50;99.90;;;;;;4907129;29;20040;-63
2022/05/17 07:07:08;;;;;;;21.05;4.32;;;13.60;99.90;;;;;;4911217;29;20114;-65
2022/05/17 07:09:37;;;;;;;19.05;3.58;;;13.70;99.90;;;;;;4907229;29;20411;-64
2022/05/17 07:14:51;;;;;;;18.20;3.97;;;13.80;99.90;;;;;;4895816;29;20049;-61
2022/05/17 07:17:21;;;;;;;17.63;3.95;;;13.90;99.90;;;;;;4900857;29;20047;-65
2022/05/17 07:19:49;;;;;;;11.30;3.20;;;14.00;99.90;;;;;;4904990;29;20397;-62
2022/05/17 07:22:16;;;;;;;23.42;3.50;;;14.00;99.90;;;;;;4910222;29;20051;-65
2022/05/17 07:24:45;;;;;;;22.88;3.75;;;14.10;99.90;;;;;;4920452;29;20051;-61
2022/05/17 07:27:15;;;;;;;14.38;3.80;;;14.10;99.90;;;;;;4899645;29;20411;-62
2022/05/17 07:29:48;;;;;;;29.67;4.25;;;14.20;99.90;;;;;;4900098;29;20044;-61
2022/05/17 07:32:16;;;;;;;19.17;3.92;;;14.30;99.90;;;;;;4908618;29;20043;-64
2022/05/17 07:34:47;;;;;;;23.48;4.25;;;14.40;99.90;;;;;;4912149;29;20067;-60
2022/05/17 07:37:16;;;;;;;14.75;3.35;;;14.50;99.90;;;;;;4901894;29;20048;-63
2022/05/17 07:39:44;;;;;;;20.60;3.38;;;14.50;99.90;;;;;;4892631;29;20045;-60
2022/05/17 07:42:12;;;;;;;18.48;3.58;;;14.50;99.90;;;;;;4895461;29;20052;-61
2022/05/17 07:44:40;;;;;;;19.85;3.25;;;14.60;99.90;;;;;;4894068;29;20049;-64
2022/05/17 07:47:13;;;;;;;15.43;3.25;;;14.60;99.90;;;;;;4895267;29;20052;-61
2022/05/17 07:49:42;;;;;;;21.08;3.95;;;14.70;99.90;;;;;;4914155;29;20047;-62
2022/05/17 07:52:10;;;;;;;20.63;4.60;;;14.70;99.90;;;;;;4912832;29;20048;-62
2022/05/17 07:54:38;;;;;;;17.27;4.28;;;14.70;99.90;;;;;;4914042;29;20055;-61
2022/05/17 07:57:06;;;;;;;18.67;3.40;;;14.70;99.90;;;;;;4905609;29;20811;-62
2022/05/17 07:59:34;;;;;;;22.38;3.78;;;14.60;99.90;;;;;;4903515;29;20044;-62
2022/05/17 08:02:02;;;;;;;11.18;3.03;;;14.60;99.90;;;;;;4906988;29;20522;-61
2022/05/17 08:04:30;;;;;;;17.42;3.53;;;14.70;99.90;;;;;;4897269;29;20083;-62
2022/05/17 08:06:58;;;;;;;15.32;3.70;;;14.90;99.90;;;;;;4902325;29;20055;-62
2022/05/17 08:09:26;;;;;;;7.25;2.45;;;14.90;99.90;;;;;;4898122;29;20515;-61
2022/05/17 08:11:54;;;;;;;20.77;4.93;;;14.90;99.90;;;;;;4895174;29;20123;-61
2022/05/17 08:14:22;;;;;;;16.02;5.03;;;15.00;99.90;;;;;;4902907;29;20048;-67
2022/05/17 08:16:50;;;;;;;13.27;4.10;;;15.00;99.90;;;;;;4912036;29;20514;-61
2022/05/17 08:19:20;;;;;;;;;;;15.10;99.90;;;;;;4909997;29;20048;-61
2022/05/17 08:21:49;;;;;;;10.88;2.80;;;15.20;99.90;;;;;;4912612;29;19923;-62
2022/05/17 08:24:17;;;;;;;12.40;3.67;;;15.30;99.90;;;;;;4908643;29;20059;-61
2022/05/17 08:29:30;;;;;;;19.00;3.40;;;15.40;99.90;;;;;;4906670;29;20052;-61
2022/05/17 08:34:44;;;;;;;11.80;3.47;;;15.60;99.90;;;;;;4905001;29;20051;-64
2022/05/17 08:37:13;;;;;;;14.20;3.33;;;15.70;99.90;;;;;;4904360;29;20060;-63
2022/05/17 08:39:40;;;;;;;8.82;3.42;;;15.80;99.90;;;;;;4911613;29;20048;-61
2022/05/17 08:42:22;;;;;;;18.27;3.22;;;15.90;99.90;;;;;;4911914;29;20492;-60
2022/05/17 08:44:56;;;;;;;11.82;3.33;;;16.00;99.90;;;;;;4900202;29;20058;-61
2022/05/17 08:47:52;;;;;;;20.42;3.67;;;16.00;99.90;;;;;;4904376;29;20049;-60
2022/05/17 08:50:34;;;;;;;12.45;2.83;;;16.10;99.90;;;;;;4909424;29;20059;-61
2022/05/17 08:53:02;;;;;;;16.00;3.63;;;16.10;99.90;;;;;;4909288;29;20443;-66
2022/05/17 08:55:32;;;;;;;14.68;2.75;;;16.20;99.90;;;;;;4898948;29;20044;-63
2022/05/17 08:58:13;;;;;;;11.05;3.20;;;16.40;99.90;;;;;;4903826;29;20408;-64
2022/05/17 09:00:44;;;;;;;11.27;2.42;;;16.50;99.90;;;;;;4898448;29;20424;-62
2022/05/17 09:03:50;;;;;;;14.15;3.45;;;16.60;99.90;;;;;;4913355;29;20515;-63
2022/05/17 09:06:43;;;;;;;12.10;3.00;;;16.70;99.90;;;;;;4905581;29;20400;-61
2022/05/17 09:09:21;;;;;;;17.73;3.67;;;16.70;99.90;;;;;;4899028;29;20523;-61
2022/05/17 09:11:58;;;;;;;9.80;2.92;;;16.70;99.90;;;;;;4896912;29;20059;-61
2022/05/17 09:14:35;;;;;;;21.98;3.65;;;16.80;99.90;;;;;;4912461;29;20048;-61
2022/05/17 09:17:07;;;;;;;13.23;2.67;;;16.80;99.90;;;;;;4896068;29;20045;-61
2022/05/17 09:19:37;;;;;;;10.57;2.58;;;16.90;99.90;;;;;;4895385;29;20060;-61
2022/05/17 09:22:06;;;;;;;12.25;3.13;;;17.10;99.90;;;;;;4898060;29;20055;-61
2022/05/17 09:25:01;;;;;;;16.15;3.97;;;17.40;99.90;;;;;;4896781;29;20052;-64
2022/05/17 09:27:37;;;;;;;12.13;2.70;;;17.70;99.90;;;;;;4905102;29;20496;-61
2022/05/17 09:30:11;;;;;;;8.93;2.20;;;17.80;99.90;;;;;;4911831;29;20056;-61
2022/05/17 09:32:44;;;;;;;12.75;2.75;;;17.90;99.90;;;;;;4906380;29;20410;-64
2022/05/17 09:35:16;;;;;;;9.98;2.40;;;18.00;99.90;;;;;;4898958;29;20055;-62
2022/05/17 09:37:49;;;;;;;9.27;2.20;;;18.00;99.90;;;;;;4899083;29;20480;-63
2022/05/17 09:40:26;;;;;;;10.95;2.42;;;18.10;99.90;;;;;;4901561;29;20044;-62
2022/05/17 09:42:56;;;;;;;11.15;2.30;;;18.10;99.90;;;;;;4900284;29;20555;-64
2022/05/17 09:45:36;;;;;;;13.30;2.97;;;18.10;99.90;;;;;;4899333;29;20041;-66
2022/05/17 09:48:07;;;;;;;12.60;2.22;;;18.10;99.90;;;;;;4905258;29;20063;-64
2022/05/17 09:53:44;;;;;;;12.07;3.10;;;18.20;99.90;;;;;;4898068;29;21225;-62
2022/05/17 09:56:12;;;;;;;17.08;3.40;;;18.30;99.90;;;;;;4898018;29;20072;-63
2022/05/17 09:58:42;;;;;;;9.98;2.47;;;18.30;99.90;;;;;;4915654;29;20059;-62
2022/05/17 10:01:19;;;;;;;14.80;2.58;;;18.30;99.90;;;;;;4910975;29;20055;-65
2022/05/17 10:04:08;;;;;;;11.68;2.28;;;18.30;99.90;;;;;;4895852;29;20404;-62
2022/05/17 10:06:39;;;;;;;14.05;2.88;;;18.30;99.90;;;;;;4897060;29;20059;-61
2022/05/17 10:09:12;;;;;;;8.52;2.50;;;18.50;99.90;;;;;;4912647;29;20048;-63
2022/05/17 10:11:53;;;;;;;17.48;2.92;;;18.70;99.90;;;;;;4915831;29;20048;-62
2022/05/17 10:14:40;;;;;;;13.88;2.40;;;18.90;99.90;;;;;;4905644;29;20047;-61
2022/05/17 10:17:14;;;;;;;17.90;3.15;;;19.20;99.90;;;;;;4895708;29;20052;-62
2022/05/17 10:20:19;;;;;;;11.05;1.98;;;19.20;99.90;;;;;;4898218;29;20057;-61
2022/05/17 10:23:01;;;;;;;11.88;3.28;;;19.30;99.90;;;;;;4891944;29;20056;-62
2022/05/17 10:25:41;;;;;;;13.60;2.40;;;19.40;99.90;;;;;;4894935;29;20120;-68
2022/05/17 10:28:16;;;;;;;;;;;19.50;99.90;;;;;;4905124;29;20052;-68
2022/05/17 10:31:14;;;;;;;12.23;2.47;;;19.60;99.90;;;;;;4909243;29;19927;-68
2022/05/17 10:34:10;;;;;;;13.18;2.03;;;19.70;99.90;;;;;;4898527;29;20052;-63
2022/05/17 10:36:45;;;;;;;8.77;2.83;;;19.80;99.90;;;;;;4911835;29;20052;-62
2022/05/17 10:39:31;;;;;;;12.30;2.03;;;19.80;99.90;;;;;;4913056;29;20064;-63
2022/05/17 10:41:59;;;;;;;14.55;2.72;;;19.80;99.90;;;;;;4915308;29;20413;-64
2022/05/17 10:44:39;;;;;;;10.30;2.20;;;19.80;99.90;;;;;;4912295;29;20064;-66
2022/05/17 10:47:24;;;;;;;11.32;2.45;;;19.70;99.90;;;;;;4912075;29;20052;-67
2022/05/17 10:50:13;;;;;;;9.98;1.98;;;19.70;99.90;;;;;;4908222;29;20041;-68
2022/05/17 10:53:14;;;;;;;11.95;2.00;;;19.70;99.90;;;;;;4899763;29;20056;-68
2022/05/17 10:55:57;;;;;;;8.00;1.55;;;19.80;99.90;;;;;;4896633;29;20176;-68
2022/05/17 10:58:28;;;;;;;8.40;1.77;;;19.90;99.90;;;;;;4905558;29;20057;-68
2022/05/17 11:01:10;;;;;;;8.00;1.27;;;20.10;99.90;;;;;;4913596;29;20059;-68
2022/05/17 11:04:08;;;;;;;13.13;2.35;;;20.30;99.90;;;;;;4912516;29;20056;-68
2022/05/17 11:06:55;;;;;;;5.57;1.88;;;20.40;99.90;;;;;;4914775;29;20048;-67
2022/05/17 11:09:31;;;;;;;10.68;1.60;;;20.50;99.90;;;;;;4914574;29;20052;-65
2022/05/17 11:12:09;;;;;;;9.43;2.35;;;20.50;99.90;;;;;;4911221;29;20506;-65
2022/05/17 11:14:49;;;;;;;8.35;1.60;;;20.50;99.90;;;;;;4914724;29;20067;-64
2022/05/17 11:17:32;;;;;;;9.95;2.60;;;20.40;99.90;;;;;;4914373;29;20048;-62
2022/05/17 11:20:16;;;;;;;10.63;2.53;;;20.30;99.90;;;;;;4912953;29;20052;-62
2022/05/17 11:23:10;;;;;;;10.55;2.13;;;20.20;99.90;;;;;;4895616;29;20067;-69
2022/05/17 11:26:16;;;;;;;11.60;2.60;;;20.20;99.90;;;;;;4895450;29;20060;-68
2022/05/17 11:29:12;;;;;;;9.38;1.40;;;20.30;99.90;;;;;;4907356;29;20538;-62
2022/05/17 11:31:59;;;;;;;7.25;1.92;;;20.40;99.90;;;;;;4900406;29;20059;-64
2022/05/17 11:34:31;;;;;;;8.43;1.92;;;20.50;99.90;;;;;;4903713;29;20059;-64
2022/05/17 11:37:02;;;;;;;8.35;1.55;;;20.70;99.90;;;;;;4914138;29;20055;-62
2022/05/17 11:39:39;;;;;;;27.42;2.53;;;20.80;99.90;;;;;;4912891;29;20559;-61
2022/05/17 11:42:33;;;;;;;17.05;2.33;;;20.80;99.90;;;;;;4904592;29;20399;-63
2022/05/17 11:45:24;;;;;;;9.57;2.65;;;20.90;99.90;;;;;;4909111;29;20070;-63
2022/05/17 11:47:57;;;;;;;14.00;2.00;;;20.90;99.90;;;;;;4913894;29;20079;-62
2022/05/17 11:50:42;;;;;;;14.98;2.05;;;20.90;99.90;;;;;;4900797;29;20049;-69
2022/05/17 11:53:22;;;;;;;16.90;2.10;;;21.00;99.90;;;;;;4895158;29;20052;-70
2022/05/17 11:56:08;;;;;;;;;;;21.00;99.90;;;;;;4896044;29;20045;-62
2022/05/17 11:58:36;;;;;;;13.80;1.80;;;21.10;99.90;;;;;;4905928;29;19923;-61
2022/05/17 12:01:30;;;;;;;9.13;1.77;;;21.30;99.90;;;;;;4912509;29;20047;-62
2022/05/17 12:04:19;;;;;;;11.35;1.92;;;21.50;99.90;;;;;;4893528;29;20044;-62
2022/05/17 12:06:48;;;;;;;6.72;1.67;;;21.70;99.90;;;;;;4894858;29;20067;-62
2022/05/17 12:09:38;;;;;;;14.35;1.92;;;21.90;99.90;;;;;;4909924;29;20060;-63
2022/05/17 12:12:28;;;;;;;6.25;1.45;;;22.20;99.90;;;;;;4913701;29;20052;-61
2022/05/17 12:14:59;;;;;;;8.38;1.65;;;22.40;99.90;;;;;;4911650;29;20048;-61
2022/05/17 12:17:34;;;;;;;13.60;1.95;;;22.70;99.90;;;;;;4902087;29;20699;-63
2022/05/17 12:20:12;;;;;;;14.13;1.73;;;23.20;99.90;;;;;;4900767;29;20043;-66
2022/05/17 12:22:58;;;;;;;18.08;1.83;;;23.50;99.60;;;;;;4896828;29;20059;-66
2022/05/17 12:26:00;;;;;;;10.57;2.30;;;23.50;98.50;;;;;;4896460;29;20045;-62
2022/05/17 12:28:52;;;;;;;10.25;1.67;;;23.60;97.80;;;;;;4896842;29;20045;-63
2022/05/17 12:31:26;;;;;;;6.93;1.30;;;23.80;98.20;;;;;;4902797;29;20056;-62
2022/05/17 12:33:55;;;;;;;7.38;1.80;;;24.00;97.90;;;;;;4913027;29;20197;-63
2022/05/17 12:36:27;;;;;;;6.57;1.20;;;24.10;96.60;;;;;;4917382;29;20040;-62
2022/05/17 12:44:39;;;;;;;9.20;2.03;;;24.40;96.60;;;;;;4905795;29;20055;-65
2022/05/17 12:47:10;;;;;;;9.98;1.73;;;24.60;94.70;;;;;;4916914;29;20044;-62
2022/05/17 12:49:41;;;;;;;9.35;2.15;;;24.50;95.00;;;;;;4899224;29;20428;-63
2022/05/17 12:52:29;;;;;;;6.93;1.58;;;24.30;94.60;;;;;;4908599;29;20044;-62
2022/05/17 12:55:11;;;;;;;6.38;1.60;;;24.40;94.70;;;;;;4899673;29;20130;-62
2022/05/17 12:57:40;;;;;;;16.50;1.90;;;24.40;93.80;;;;;;4900581;29;20055;-63
2022/05/17 13:00:22;;;;;;;6.60;1.05;;;24.20;93.90;;;;;;4917019;29;20044;-62
2022/05/17 13:02:58;;;;;;;10.75;1.67;;;24.10;94.30;;;;;;4915885;29;20052;-62
2022/05/17 13:05:46;;;;;;;11.02;1.67;;;24.10;94.20;;;;;;4905233;29;20049;-62
2022/05/17 13:08:23;;;;;;;7.43;1.83;;;24.30;94.20;;;;;;4907039;29;20052;-68
2022/05/17 13:11:02;;;;;;;6.70;1.42;;;24.40;94.50;;;;;;4915815;29;20040;-66
2022/05/17 13:13:32;;;;;;;10.75;1.40;;;24.80;93.50;;;;;;4917040;29;20420;-66
2022/05/17 13:16:14;;;;;;;12.05;1.50;;;25.20;92.90;;;;;;4915014;29;20122;-66
2022/05/17 13:18:54;;;;;;;5.20;1.30;;;25.30;92.70;;;;;;4913679;29;20508;-66
2022/05/17 13:21:45;;;;;;;8.55;1.88;;;25.20;92.00;;;;;;4911734;29;20051;-68
2022/05/17 13:24:34;;;;;;;5.78;1.30;;;25.00;92.80;;;;;;4906534;29;20060;-63
2022/05/17 13:27:07;;;;;;;10.75;1.80;;;24.70;92.80;;;;;;4893525;29;20061;-62
2022/05/17 13:29:39;;;;;;;15.35;2.10;;;24.40;92.20;;;;;;4910303;29;20059;-64
2022/05/17 13:32:19;;;;;;;11.02;1.70;;;23.90;92.50;;;;;;4898246;29;20048;-68